GQNO

Nouakchott–Oumtounsy International Airport

Nouakchott, Mauritania
METAR GQNO 151230Z 01007KT CAVOK 25/09 Q1013 NOSIG
Observed Flight Rules
Nov-15 @ 12:30 UTC (35 minutes ago) Visual Flight Rules
Wind Visibility Clouds
10° at 7 knots 10,000+ meters
  • Clear skies
Temperatures Readings
Current 25°C / 77°F
Dewpoint 9°C / 48°F
Humidity 36%
Altimeter 29.91" Hg
Pressure 1013 hPa
Elevation 4
METAR GQNO 151230Z 01007KT CAVOK 25/09 Q1013 NOSIG
Observed Flight Rules
Nov-15 @ 12:30 UTC
(35 minutes ago)
VFR
Wind Visibility
10° at 7 knots 10,000+ meters
Clouds
  • Clear skies
Temperature Dewpoint
25°C / 77°F 9°C / 48°F
Humidity Altimeter Pressure
36% 29.91" Hg 1013 hPa